New Blessing — 3EBD7 — position and weather

sailwx.info

Track history (hours):
 
Tides and Currents Weather Stations Pressure Air Temp Water Temp Dewpoint Dewpoint Depression Visibility Wind Speed Wind Dir Waves Ship Positions

New Blessing

Last reported at 2016-Aug-24 18:30 UTC. Time now 2016-Aug-31 06:10 UTC.
Position N 31°21' E 121°40'.

Length 176 m; draft 6.1 m.

Type: Cargo ship. MMSI: 367513184.

Date/timePositionNaut miles runAvg speedWind from/ knotsBaromVisibWave heightAir tempDewpointWater temp
2016-Aug-24 18:30N 31°21' E 121°40'9 9.3
2016-Aug-24 17:32N 31°25' E 121°31'1010.6
2016-Aug-24 16:33N 31°32' E 121°21'1212.1
2016-Aug-24 15:33N 31°41' E 121°11'41 9.8
2016-Aug-24 11:20N 32°02' E 120°30'7 8.6
2016-Aug-24 10:31N 31°60' E 120°22'1010.5
2016-Aug-24 09:32N 31°56' E 120°11'1311.9
2016-Aug-24 08:25N 32°02' E 119°57'  
2016-Aug-19 12:29N 31°47' E 121°01'5 5.1
2016-Aug-19 11:33N 31°45' E 121°06'6 5.4
2016-Aug-19 10:27N 31°41' E 121°11'5 5.6
2016-Aug-19 09:34N 31°38' E 121°16'7 6.6
2016-Aug-19 08:34N 31°33' E 121°21'8 7.6
2016-Aug-19 07:34N 31°28' E 121°28'7 7.1
2016-Aug-19 06:33N 31°24' E 121°34'  
Track history (hours):
 
Tides and Currents Weather Stations Pressure Air Temp Water Temp Dewpoint Dewpoint Depression Visibility Wind Speed Wind Dir Waves Ship Positions

New Blessing

Last reported at 2016-Aug-24 18:30 UTC. Time now 2016-Aug-31 06:10 UTC.
Position N 31°21' E 121°40'.

Length 176 m; draft 6.1 m.

Type: Cargo ship. MMSI: 367513184.

Date/timePositionNaut miles runAvg speedWind from/ knotsBaromVisibWave heightAir tempDewpointWater temp
2016-Aug-24 18:30N 31°21' E 121°40'9 9.3
2016-Aug-24 17:32N 31°25' E 121°31'1010.6
2016-Aug-24 16:33N 31°32' E 121°21'1212.1
2016-Aug-24 15:33N 31°41' E 121°11'41 9.8
2016-Aug-24 11:20N 32°02' E 120°30'7 8.6
2016-Aug-24 10:31N 31°60' E 120°22'1010.5
2016-Aug-24 09:32N 31°56' E 120°11'1311.9
2016-Aug-24 08:25N 32°02' E 119°57'  
2016-Aug-19 12:29N 31°47' E 121°01'5 5.1
2016-Aug-19 11:33N 31°45' E 121°06'6 5.4
2016-Aug-19 10:27N 31°41' E 121°11'5 5.6
2016-Aug-19 09:34N 31°38' E 121°16'7 6.6
2016-Aug-19 08:34N 31°33' E 121°21'8 7.6
2016-Aug-19 07:34N 31°28' E 121°28'7 7.1
2016-Aug-19 06:33N 31°24' E 121°34'  

Dump ship's entire track history